Time;durP1;ratioP1;P1;durP2;ratioP2;P2;SDS_P1;SDS_P2;PMS_P1;PMS_P2;Temp;Humidity;BMP_temperature;BMP_pressure;BME280_temperature;BME280_humidity;BME280_pressure;Samples;Min_cycle;Max_cycle;Signal;HPM_P1;HPM_P2
2021/08/13 00:01:42;;;;;;;1999.90;999.90;;;21.70;99.90;;;;;;5063463;28;20403;-84
2021/08/13 00:04:09;;;;;;;1999.90;999.90;;;21.70;99.90;;;;;;5044876;28;20196;-84
2021/08/13 00:06:38;;;;;;;1999.90;999.90;;;21.70;99.90;;;;;;5044268;28;20470;-84
2021/08/13 00:09:03;;;;;;;1999.90;999.90;;;21.70;99.90;;;;;;5044300;28;20413;-84
2021/08/13 00:11:29;;;;;;;1999.90;999.90;;;21.70;99.90;;;;;;5044949;28;20415;-83
2021/08/13 00:13:55;;;;;;;1999.90;999.90;;;21.60;99.90;;;;;;5045450;28;20180;-83
2021/08/13 00:16:20;;;;;;;1999.90;999.90;;;21.60;99.90;;;;;;5062638;28;20222;-84
2021/08/13 00:18:46;;;;;;;1999.90;999.90;;;21.60;99.90;;;;;;5063439;28;20197;-84
2021/08/13 00:21:11;;;;;;;1999.90;999.90;;;21.50;99.90;;;;;;5045446;28;20285;-84
2021/08/13 00:23:37;;;;;;;1999.90;999.90;;;21.50;99.90;;;;;;5044668;28;20197;-84
2021/08/13 00:26:03;;;;;;;1999.90;999.90;;;21.60;99.90;;;;;;5044636;28;20173;-84
2021/08/13 00:28:29;;;;;;;1999.90;999.90;;;21.60;99.90;;;;;;5062475;28;20263;-83
2021/08/13 00:30:54;;;;;;;1999.90;999.90;;;21.60;99.90;;;;;;5044658;28;20260;-84
2021/08/13 00:33:26;;;;;;;1999.90;999.90;;;21.50;99.90;;;;;;5063784;28;20176;-84
2021/08/13 00:35:51;;;;;;;1999.90;999.90;;;21.50;99.90;;;;;;5044463;28;20258;-84
2021/08/13 00:38:17;;;;;;;1999.90;999.90;;;21.50;99.90;;;;;;5061330;28;20431;-84
2021/08/13 00:40:43;;;;;;;1999.90;999.90;;;21.50;99.90;;;;;;5060320;28;20160;-84
2021/08/13 00:43:08;;;;;;;1999.90;999.90;;;21.50;99.90;;;;;;5061015;28;20307;-85
2021/08/13 00:45:34;;;;;;;1999.90;999.90;;;21.40;99.90;;;;;;5061154;28;20192;-84
2021/08/13 00:48:02;;;;;;;1999.90;999.90;;;21.40;99.90;;;;;;5061165;28;20205;-84
2021/08/13 00:50:28;;;;;;;1999.90;999.90;;;21.40;99.90;;;;;;5060919;28;20169;-84
2021/08/13 00:52:57;;;;;;;1999.90;999.90;;;21.40;99.90;;;;;;5060175;28;20424;-84
2021/08/13 00:55:23;;;;;;;1999.90;999.90;;;21.40;99.90;;;;;;5042002;28;20250;-84
2021/08/13 00:57:49;;;;;;;1999.90;999.90;;;21.30;99.90;;;;;;5042526;28;20434;-84
2021/08/13 01:00:17;;;;;;;1999.90;999.90;;;21.30;99.90;;;;;;5059449;28;20779;-84
2021/08/13 01:02:43;;;;;;;1999.90;999.90;;;21.30;99.90;;;;;;5060442;28;20602;-84
2021/08/13 01:05:09;;;;;;;1999.90;999.90;;;21.30;99.90;;;;;;5059754;28;20403;-83
2021/08/13 01:07:35;;;;;;;1999.90;999.90;;;21.20;99.90;;;;;;5039559;28;20428;-83
2021/08/13 01:10:02;;;;;;;1999.90;999.90;;;21.20;99.90;;;;;;5058854;28;20902;-83
2021/08/13 01:12:37;;;;;;;1999.90;999.90;;;21.20;99.90;;;;;;5040544;28;20914;-83
2021/08/13 01:15:11;;;;;;;1999.90;999.90;;;21.20;99.90;;;;;;5040977;28;20413;-84
2021/08/13 01:17:46;;;;;;;1999.90;999.90;;;21.20;99.90;;;;;;5058523;28;20422;-83
2021/08/13 01:20:24;;;;;;;1999.90;999.90;;;21.10;99.90;;;;;;5039905;28;20417;-83
2021/08/13 01:23:01;;;;;;;1999.90;999.90;;;21.10;99.90;;;;;;5057980;28;20798;-83
2021/08/13 01:25:31;;;;;;;1999.90;999.90;;;21.10;99.90;;;;;;5040780;28;20415;-84
2021/08/13 01:28:03;;;;;;;1999.90;999.90;;;21.00;99.90;;;;;;5058224;28;20521;-83
2021/08/13 01:30:34;;;;;;;1999.90;999.90;;;21.00;99.90;;;;;;5058844;28;20420;-83
2021/08/13 01:33:13;;;;;;;1999.90;999.90;;;21.00;99.90;;;;;;5058458;28;20388;-84
2021/08/13 01:35:44;;;;;;;1999.90;999.90;;;21.00;99.90;;;;;;5058555;28;20411;-84
2021/08/13 01:38:15;;;;;;;1999.90;999.90;;;21.00;99.90;;;;;;5058457;28;20511;-83
2021/08/13 01:40:46;;;;;;;1999.90;999.90;;;20.90;99.90;;;;;;5040381;28;20841;-83
2021/08/13 01:43:13;;;;;;;1999.90;999.90;;;21.00;99.90;;;;;;5039936;28;20463;-83
2021/08/13 01:45:39;;;;;;;1999.90;999.90;;;20.90;99.90;;;;;;5057930;28;20403;-83
2021/08/13 01:48:08;;;;;;;1999.90;999.90;;;20.90;99.90;;;;;;5057202;28;20451;-83
2021/08/13 01:50:33;;;;;;;1999.90;999.90;;;20.80;99.90;;;;;;5057189;28;20408;-83
2021/08/13 01:53:01;;;;;;;1999.90;999.90;;;20.80;99.90;;;;;;5057095;28;20407;-83
2021/08/13 01:55:28;;;;;;;1999.90;999.90;;;20.80;99.90;;;;;;5057162;28;20406;-83
2021/08/13 01:57:54;;;;;;;1999.90;999.90;;;20.80;99.90;;;;;;5038792;28;20431;-83
2021/08/13 02:00:21;;;;;;;1999.90;999.90;;;20.80;99.90;;;;;;5057830;28;20400;-83
2021/08/13 02:02:48;;;;;;;1999.90;999.90;;;20.80;99.90;;;;;;5056533;28;20817;-83
2021/08/13 02:05:26;;;;;;;1999.90;999.90;;;20.80;99.90;;;;;;5057662;28;20400;-83
2021/08/13 02:07:54;;;;;;;1999.90;999.90;;;20.80;99.90;;;;;;5040512;28;20427;-83
2021/08/13 02:10:20;;;;;;;1999.90;999.90;;;20.80;99.90;;;;;;5058813;28;20412;-84
2021/08/13 02:12:46;;;;;;;1999.90;999.90;;;20.80;99.90;;;;;;5057554;28;20414;-83
2021/08/13 02:15:13;;;;;;;1999.90;999.90;;;20.80;99.90;;;;;;5043550;28;20422;-83
2021/08/13 02:17:43;;;;;;;1999.90;999.90;;;20.80;99.90;;;;;;5046404;28;20223;-84
2021/08/13 02:20:14;;;;;;;1999.90;999.90;;;20.70;99.90;;;;;;5046466;28;20411;-84
2021/08/13 02:22:40;;;;;;;1999.90;999.90;;;20.70;99.90;;;;;;5063658;28;20454;-84
2021/08/13 02:25:07;;;;;;;1999.90;999.90;;;20.70;99.90;;;;;;5063034;28;20403;-84
2021/08/13 02:27:33;;;;;;;1999.90;999.90;;;20.70;99.90;;;;;;5045047;28;20497;-84
2021/08/13 02:29:59;;;;;;;1999.90;999.90;;;20.70;99.90;;;;;;5063409;28;20401;-84
2021/08/13 02:32:27;;;;;;;1999.90;999.90;;;20.60;99.90;;;;;;5058494;28;20512;-84
2021/08/13 02:34:52;;;;;;;1999.90;999.90;;;20.60;99.90;;;;;;5039249;28;20415;-83
2021/08/13 02:37:32;;;;;;;1999.90;999.90;;;20.60;99.90;;;;;;5057013;28;20419;-83
2021/08/13 02:40:02;;;;;;;1999.90;999.90;;;20.60;99.90;;;;;;5039102;28;20164;-82
2021/08/13 02:42:39;;;;;;;1999.90;999.90;;;20.60;99.90;;;;;;5038980;28;20436;-83
2021/08/13 02:45:06;;;;;;;1999.90;999.90;;;20.60;99.90;;;;;;5039164;28;20405;-82
2021/08/13 02:47:32;;;;;;;1999.90;999.90;;;20.50;99.90;;;;;;5057267;28;20425;-83
2021/08/13 02:50:03;;;;;;;1999.90;999.90;;;20.50;99.90;;;;;;5039438;28;20908;-83
2021/08/13 02:52:32;;;;;;;1999.90;999.90;;;20.50;99.90;;;;;;5057540;28;20743;-83
2021/08/13 02:55:03;;;;;;;1999.90;999.90;;;20.50;99.90;;;;;;5057075;28;20434;-83
2021/08/13 02:57:33;;;;;;;1999.90;999.90;;;20.50;99.90;;;;;;5057215;28;20411;-83
2021/08/13 03:00:01;;;;;;;1999.90;999.90;;;20.50;99.90;;;;;;5040349;28;20414;-82
2021/08/13 03:02:27;;;;;;;1999.90;999.90;;;20.50;99.90;;;;;;5057594;28;20454;-83
2021/08/13 03:04:55;;;;;;;1999.90;999.90;;;20.50;99.90;;;;;;5039717;28;20489;-82
2021/08/13 03:07:23;;;;;;;1999.90;999.90;;;20.40;99.90;;;;;;5039487;28;20430;-83
2021/08/13 03:09:50;;;;;;;1999.90;999.90;;;20.30;99.90;;;;;;5058577;28;20396;-83
2021/08/13 03:12:16;;;;;;;1999.90;999.90;;;20.30;99.90;;;;;;5062345;28;20393;-84
2021/08/13 03:14:43;;;;;;;1999.90;999.90;;;20.30;99.90;;;;;;5045323;28;20439;-84
2021/08/13 03:17:09;;;;;;;1999.90;999.90;;;20.30;99.90;;;;;;5061952;28;20449;-84
2021/08/13 03:19:36;;;;;;;1999.90;999.90;;;20.30;99.90;;;;;;5062901;28;20436;-84
2021/08/13 03:22:01;;;;;;;1999.90;999.90;;;20.30;99.90;;;;;;5061462;28;20407;-84
2021/08/13 03:24:28;;;;;;;1999.90;999.90;;;20.30;99.90;;;;;;5061347;28;20447;-84
2021/08/13 03:26:54;;;;;;;1999.90;999.90;;;20.30;99.90;;;;;;5044265;28;20191;-84
2021/08/13 03:29:20;;;;;;;1999.90;999.90;;;20.30;99.90;;;;;;5044876;28;20413;-84
2021/08/13 03:31:46;;;;;;;1999.90;999.90;;;20.30;99.90;;;;;;5061807;28;20453;-84
2021/08/13 03:34:15;;;;;;;1999.90;999.90;;;20.30;99.90;;;;;;5063221;28;20229;-84
2021/08/13 03:36:41;;;;;;;1999.90;999.90;;;20.10;99.90;;;;;;5063861;28;20512;-84
2021/08/13 03:39:09;;;;;;;1999.90;999.90;;;20.10;99.90;;;;;;5063218;28;20490;-84
2021/08/13 03:41:35;;;;;;;1999.90;999.90;;;20.10;99.90;;;;;;5116365;22;20935;-81
2021/08/13 03:44:01;;;;;;;1999.90;999.90;;;19.90;99.90;;;;;;5059171;28;20524;-81
2021/08/13 03:46:27;;;;;;;1999.90;999.90;;;19.90;99.90;;;;;;5058228;28;20416;-81
2021/08/13 03:48:53;;;;;;;1999.90;999.90;;;20.00;99.90;;;;;;5058988;28;20406;-81
2021/08/13 03:51:19;;;;;;;1999.90;999.90;;;20.00;99.90;;;;;;5058936;28;20159;-81
2021/08/13 03:53:45;;;;;;;1999.90;999.90;;;19.90;99.90;;;;;;5058323;28;20168;-80
2021/08/13 03:56:10;;;;;;;1999.90;999.90;;;19.90;99.90;;;;;;5058870;28;20413;-81
2021/08/13 03:58:36;;;;;;;1999.90;999.90;;;19.90;99.90;;;;;;5058481;28;20415;-81
2021/08/13 04:01:02;;;;;;;1999.90;999.90;;;20.00;99.90;;;;;;5058380;28;20173;-81
2021/08/13 04:03:28;;;;;;;1999.90;999.90;;;20.00;99.90;;;;;;5040733;28;20201;-80
2021/08/13 04:05:53;;;;;;;1999.90;999.90;;;20.00;99.90;;;;;;5040743;28;20171;-81
2021/08/13 04:08:19;;;;;;;1999.90;999.90;;;20.00;99.90;;;;;;5058158;28;20224;-81
2021/08/13 04:10:44;;;;;;;1999.90;999.90;;;20.10;99.90;;;;;;5057963;28;20160;-81
2021/08/13 04:13:10;;;;;;;1999.90;999.90;;;20.10;99.90;;;;;;5058350;28;20250;-81
2021/08/13 04:15:38;;;;;;;1999.90;999.90;;;20.10;99.90;;;;;;5058986;28;20168;-81
2021/08/13 04:18:04;;;;;;;1999.90;999.90;;;20.10;99.90;;;;;;5040569;28;20244;-81
2021/08/13 04:20:29;;;;;;;1999.90;999.90;;;20.10;99.90;;;;;;5058228;28;20892;-81
2021/08/13 04:22:55;;;;;;;1999.90;999.90;;;20.10;99.90;;;;;;5057898;28;20272;-81
2021/08/13 04:25:21;;;;;;;1999.90;999.90;;;20.10;99.90;;;;;;5041154;28;20169;-81
2021/08/13 04:27:46;;;;;;;1999.90;999.90;;;20.00;99.90;;;;;;5058268;28;20178;-81
2021/08/13 04:30:13;;;;;;;1999.90;999.90;;;19.90;99.90;;;;;;5040046;28;20174;-81
2021/08/13 04:32:40;;;;;;;1999.90;999.90;;;19.90;99.90;;;;;;5057844;28;20163;-81
2021/08/13 04:35:07;;;;;;;1999.90;999.90;;;19.90;99.90;;;;;;5058299;28;20401;-80
2021/08/13 04:37:32;;;;;;;1999.90;999.90;;;19.90;99.90;;;;;;5057261;28;20423;-81
2021/08/13 04:39:59;;;;;;;1999.90;999.90;;;19.90;99.90;;;;;;5039766;28;20549;-81
2021/08/13 04:42:24;;;;;;;1999.90;999.90;;;19.90;99.90;;;;;;5040213;28;20436;-81
2021/08/13 04:44:50;;;;;;;1999.90;999.90;;;20.00;99.90;;;;;;5039679;28;20417;-81
2021/08/13 04:47:16;;;;;;;1999.90;999.90;;;20.00;99.90;;;;;;5057359;28;20206;-81
2021/08/13 04:49:41;;;;;;;1999.90;999.90;;;20.10;99.90;;;;;;5039816;28;20428;-81
2021/08/13 04:52:08;;;;;;;1999.90;999.90;;;20.10;99.90;;;;;;5057753;28;20191;-81
2021/08/13 04:54:33;;;;;;;1999.90;999.90;;;20.10;99.90;;;;;;5057745;28;20171;-81
2021/08/13 04:57:02;;;;;;;1999.90;999.90;;;20.10;99.90;;;;;;5039516;28;20960;-81
2021/08/13 04:59:28;;;;;;;1999.90;999.90;;;20.10;99.90;;;;;;5056975;28;20172;-81
2021/08/13 05:01:53;;;;;;;1999.90;999.90;;;20.10;99.90;;;;;;5057447;28;20411;-81
2021/08/13 05:04:19;;;;;;;1999.90;999.90;;;20.10;99.90;;;;;;5057391;28;20442;-80
2021/08/13 05:06:45;;;;;;;1999.90;999.90;;;20.10;99.90;;;;;;5057581;28;20184;-81
2021/08/13 05:09:11;;;;;;;1999.90;999.90;;;20.10;99.90;;;;;;5039622;28;20169;-80
2021/08/13 05:11:37;;;;;;;1999.90;999.90;;;20.20;99.90;;;;;;5057533;28;20537;-81
2021/08/13 05:14:03;;;;;;;1999.90;999.90;;;20.20;99.90;;;;;;5057296;28;20402;-81
2021/08/13 05:16:30;;;;;;;1999.90;999.90;;;20.20;99.90;;;;;;5056997;28;20432;-81
2021/08/13 05:18:56;;;;;;;1999.90;999.90;;;20.20;99.90;;;;;;5056941;28;20401;-81
2021/08/13 05:21:21;;;;;;;1999.90;999.90;;;20.20;99.90;;;;;;5056803;28;20403;-81
2021/08/13 05:23:47;;;;;;;1999.90;999.90;;;20.30;99.90;;;;;;5056903;28;20182;-81
2021/08/13 05:26:13;;;;;;;1999.90;999.90;;;20.10;99.90;;;;;;5038889;28;20785;-81
2021/08/13 05:28:39;;;;;;;1999.90;999.90;;;20.20;99.90;;;;;;5039609;28;20264;-81
2021/08/13 05:31:04;;;;;;;1999.90;999.90;;;20.30;99.90;;;;;;5057581;28;20216;-81
2021/08/13 05:33:30;;;;;;;1999.90;999.90;;;20.40;99.90;;;;;;5056703;28;20170;-81
2021/08/13 05:35:56;;;;;;;1999.90;999.90;;;20.40;99.90;;;;;;5038786;28;20207;-81
2021/08/13 05:38:22;;;;;;;1999.90;999.90;;;20.50;99.90;;;;;;5039584;28;20266;-82
2021/08/13 05:40:47;;;;;;;1999.90;999.90;;;20.50;99.90;;;;;;5040003;28;20464;-82
2021/08/13 05:43:13;;;;;;;1999.90;999.90;;;20.40;99.90;;;;;;5039482;28;20192;-82
2021/08/13 05:45:39;;;;;;;1999.90;999.90;;;20.50;99.90;;;;;;5057782;28;20157;-82
2021/08/13 05:48:05;;;;;;;1999.90;999.90;;;20.50;99.90;;;;;;5056309;28;20234;-82
2021/08/13 05:50:31;;;;;;;1999.90;999.90;;;20.50;99.90;;;;;;5039981;28;20167;-82
2021/08/13 05:52:57;;;;;;;1999.90;999.90;;;20.50;99.90;;;;;;5039613;28;20473;-82
2021/08/13 05:55:23;;;;;;;1999.90;999.90;;;20.40;99.90;;;;;;5039866;28;20405;-82
2021/08/13 05:57:49;;;;;;;1999.90;999.90;;;20.40;99.90;;;;;;5057421;28;20198;-82
2021/08/13 06:00:15;;;;;;;1999.90;999.90;;;20.50;99.90;;;;;;5058003;28;20168;-82
2021/08/13 06:02:58;;;;;;;1999.90;999.90;;;20.50;99.90;;;;;;5058154;28;20194;-82
2021/08/13 06:05:24;;;;;;;1999.90;999.90;;;20.50;99.90;;;;;;5039614;28;20421;-82
2021/08/13 06:07:50;;;;;;;1999.90;999.90;;;20.60;99.90;;;;;;5038284;28;20574;-82
2021/08/13 06:10:17;;;;;;;1999.90;999.90;;;20.70;99.90;;;;;;5056999;28;20404;-82
2021/08/13 06:12:43;;;;;;;1999.90;999.90;;;20.80;99.90;;;;;;5057203;28;20414;-82
2021/08/13 06:15:09;;;;;;;1999.90;999.90;;;20.80;99.90;;;;;;5056679;28;20403;-82
2021/08/13 06:17:35;;;;;;;1999.90;999.90;;;20.90;99.90;;;;;;5039688;28;20441;-83
2021/08/13 06:20:01;;;;;;;1999.90;999.90;;;20.90;99.90;;;;;;5058364;28;20774;-83
2021/08/13 06:22:26;;;;;;;1999.90;999.90;;;20.80;99.90;;;;;;5057061;28;20171;-82
2021/08/13 06:24:52;;;;;;;1999.90;999.90;;;20.80;99.90;;;;;;5056950;28;20165;-82
2021/08/13 06:27:18;;;;;;;1999.90;999.90;;;20.90;99.90;;;;;;5056575;28;20717;-82
2021/08/13 06:29:43;;;;;;;1999.90;999.90;;;21.00;99.90;;;;;;5056698;28;20157;-82
2021/08/13 06:32:09;;;;;;;1999.90;999.90;;;21.10;99.90;;;;;;5056915;28;20160;-82
2021/08/13 06:34:34;;;;;;;1999.90;999.90;;;21.10;99.90;;;;;;5038521;28;20175;-82
2021/08/13 06:37:00;;;;;;;1999.90;999.90;;;21.30;99.90;;;;;;5055829;28;20192;-81
2021/08/13 06:39:27;;;;;;;1999.90;999.90;;;21.30;99.90;;;;;;5054841;28;20191;-81
2021/08/13 06:41:52;;;;;;;1999.90;999.90;;;21.40;99.90;;;;;;5056049;28;20184;-81
2021/08/13 06:44:18;;;;;;;1999.90;999.90;;;21.50;99.90;;;;;;5056327;28;20431;-81
2021/08/13 06:46:44;;;;;;;1999.90;999.90;;;21.50;99.90;;;;;;5056166;28;20181;-82
2021/08/13 06:49:09;;;;;;;1999.90;999.90;;;21.60;99.90;;;;;;5055863;28;20165;-82
2021/08/13 06:51:35;;;;;;;1999.90;999.90;;;21.60;99.90;;;;;;5055675;28;20165;-81
2021/08/13 06:54:01;;;;;;;1999.90;999.90;;;21.60;99.90;;;;;;5038031;28;20654;-81
2021/08/13 06:56:26;;;;;;;1999.90;999.90;;;21.60;99.90;;;;;;5037600;28;20194;-81
2021/08/13 06:58:55;;;;;;;1999.90;999.90;;;21.70;99.90;;;;;;5056503;28;20632;-81
2021/08/13 07:01:21;;;;;;;1999.90;999.90;;;21.70;99.90;;;;;;5059583;28;20167;-81
2021/08/13 07:03:47;;;;;;;1999.90;999.90;;;21.80;99.90;;;;;;5059817;28;20449;-81
2021/08/13 07:06:13;;;;;;;1999.90;999.90;;;21.70;99.90;;;;;;5059154;28;20179;-81
2021/08/13 07:08:38;;;;;;;1999.90;999.90;;;21.80;99.90;;;;;;5059149;28;20165;-82
2021/08/13 07:11:07;;;;;;;1999.90;999.90;;;21.90;99.90;;;;;;5041613;28;20701;-81
2021/08/13 07:13:33;;;;;;;1999.90;999.90;;;21.90;99.90;;;;;;5059692;28;20210;-82
2021/08/13 07:15:58;;;;;;;1999.90;999.90;;;21.90;99.90;;;;;;5059462;28;20530;-81
2021/08/13 07:18:24;;;;;;;1999.90;999.90;;;21.90;99.90;;;;;;5059292;28;20172;-82
2021/08/13 07:20:50;;;;;;;1999.90;999.90;;;21.90;99.90;;;;;;5040937;28;20180;-82
2021/08/13 07:23:15;;;;;;;1999.90;999.90;;;21.80;99.90;;;;;;5059405;28;20214;-81
2021/08/13 07:25:41;;;;;;;1999.90;999.90;;;21.80;99.90;;;;;;5040793;28;20164;-82
2021/08/13 07:28:06;;;;;;;1999.90;999.90;;;21.80;99.90;;;;;;5059048;28;20191;-82
2021/08/13 07:30:32;;;;;;;1999.90;999.90;;;21.80;99.90;;;;;;5041248;28;20196;-81
2021/08/13 07:32:58;;;;;;;1999.90;999.90;;;21.80;99.90;;;;;;5041188;28;20173;-81
2021/08/13 07:35:23;;;;;;;1999.90;999.90;;;21.90;99.90;;;;;;5058934;28;20168;-82
2021/08/13 07:37:49;;;;;;;1999.90;999.90;;;21.90;99.90;;;;;;5041036;28;20185;-81
2021/08/13 07:40:20;;;;;;;1999.90;999.90;;;22.00;99.90;;;;;;5058890;28;20165;-81
2021/08/13 07:42:46;;;;;;;1999.90;999.90;;;22.00;99.90;;;;;;5058514;28;20180;-81
2021/08/13 07:45:15;;;;;;;1999.90;999.90;;;22.10;99.90;;;;;;5058583;28;20534;-81
2021/08/13 07:47:41;;;;;;;1999.90;999.90;;;22.10;99.90;;;;;;5058343;28;20213;-81
2021/08/13 07:50:07;;;;;;;1999.90;999.90;;;22.10;99.90;;;;;;5059028;28;20755;-82
2021/08/13 07:52:33;;;;;;;1999.90;999.90;;;22.00;99.90;;;;;;5058752;28;20165;-81
2021/08/13 07:54:59;;;;;;;1999.90;999.90;;;22.00;99.90;;;;;;5058147;28;20921;-81
2021/08/13 07:57:25;;;;;;;1999.90;999.90;;;22.10;99.90;;;;;;5040207;28;20594;-81
2021/08/13 07:59:51;;;;;;;1999.90;999.90;;;22.20;99.90;;;;;;5040667;28;20176;-81
2021/08/13 08:02:17;;;;;;;1999.90;999.90;;;22.20;99.90;;;;;;5058148;28;20395;-81
2021/08/13 08:04:44;;;;;;;1999.90;999.90;;;22.20;99.90;;;;;;5058101;28;20189;-81
2021/08/13 08:07:10;;;;;;;1999.90;999.90;;;22.20;99.90;;;;;;5040718;28;20185;-81
2021/08/13 08:09:35;;;;;;;1999.90;999.90;;;22.30;99.90;;;;;;5040240;28;20408;-81
2021/08/13 08:12:01;;;;;;;1999.90;999.90;;;22.30;99.90;;;;;;5039670;28;20640;-81
2021/08/13 08:14:27;;;;;;;1999.90;999.90;;;22.40;99.90;;;;;;5058125;28;20309;-81
2021/08/13 08:16:52;;;;;;;1999.90;999.90;;;22.40;99.90;;;;;;5058301;28;20676;-81
2021/08/13 08:19:18;;;;;;;1999.90;999.90;;;22.50;99.90;;;;;;5040191;28;20636;-81
2021/08/13 08:21:44;;;;;;;1999.90;999.90;;;22.60;99.90;;;;;;5058033;28;20179;-82
2021/08/13 08:24:12;;;;;;;1999.90;999.90;;;22.60;99.90;;;;;;5057721;28;20721;-81
2021/08/13 08:26:39;;;;;;;1999.90;999.90;;;22.60;99.90;;;;;;5057751;28;20189;-81
2021/08/13 08:29:05;;;;;;;1999.90;999.90;;;22.60;99.90;;;;;;5040048;28;20434;-81
2021/08/13 08:31:31;;;;;;;1999.90;999.90;;;22.50;99.90;;;;;;5040031;28;20930;-81
2021/08/13 08:33:56;;;;;;;1999.90;999.90;;;22.60;99.90;;;;;;5039878;28;20388;-81
2021/08/13 08:36:22;;;;;;;1999.90;999.90;;;22.70;99.90;;;;;;5057637;28;20789;-81
2021/08/13 08:38:48;;;;;;;1999.90;999.90;;;22.60;99.90;;;;;;5058190;28;20669;-81
2021/08/13 08:41:13;;;;;;;1999.90;999.90;;;22.60;99.90;;;;;;5057395;28;20165;-80
2021/08/13 08:43:39;;;;;;;1999.90;999.90;;;22.60;99.90;;;;;;5057501;28;20250;-80
2021/08/13 08:46:04;;;;;;;1999.90;999.90;;;22.80;99.90;;;;;;5039486;28;20259;-81
2021/08/13 08:48:35;;;;;;;1999.90;999.90;;;22.90;99.90;;;;;;5057135;28;20169;-81
2021/08/13 08:51:06;;;;;;;1999.90;999.90;;;22.90;99.90;;;;;;5056870;28;20222;-81
2021/08/13 08:53:33;;;;;;;1999.90;999.90;;;23.00;99.90;;;;;;5056695;28;20402;-81
2021/08/13 08:55:59;;;;;;;1999.90;999.90;;;23.10;99.90;;;;;;5038816;28;20413;-81
2021/08/13 08:58:29;;;;;;;1999.90;999.90;;;23.10;99.90;;;;;;5057369;28;20498;-81
2021/08/13 09:00:55;;;;;;;1999.90;999.90;;;23.20;99.90;;;;;;5056898;28;20390;-81
2021/08/13 09:03:23;;;;;;;1999.90;999.90;;;23.30;99.90;;;;;;5056896;28;20911;-81
2021/08/13 09:05:49;;;;;;;1999.90;999.90;;;23.30;99.90;;;;;;5038991;28;20490;-81
2021/08/13 09:08:16;;;;;;;1999.90;999.90;;;23.40;99.90;;;;;;5056568;28;20990;-81
2021/08/13 09:10:42;;;;;;;1999.90;999.90;;;23.40;99.90;;;;;;5056691;28;20423;-81
2021/08/13 09:13:09;;;;;;;1999.90;999.90;;;23.40;99.90;;;;;;5056193;28;20407;-81
2021/08/13 09:15:40;;;;;;;1999.90;999.90;;;23.50;99.90;;;;;;5056855;28;20549;-81
2021/08/13 09:18:09;;;;;;;1999.90;999.90;;;23.60;99.90;;;;;;5057398;28;20423;-81
2021/08/13 09:20:37;;;;;;;1999.90;999.90;;;23.60;99.90;;;;;;5056559;28;20407;-81
2021/08/13 09:23:03;;;;;;;1999.90;999.90;;;23.60;99.90;;;;;;5056864;28;21001;-81
2021/08/13 09:25:29;;;;;;;1999.90;999.90;;;23.70;99.90;;;;;;5038724;28;20498;-81
2021/08/13 09:27:55;;;;;;;1999.90;999.90;;;23.60;99.90;;;;;;5056338;28;20462;-81
2021/08/13 09:30:21;;;;;;;1999.90;999.90;;;23.70;99.90;;;;;;5056502;28;20161;-81
2021/08/13 09:33:05;;;;;;;1999.90;999.90;;;23.70;99.90;;;;;;5038411;28;20415;-81
2021/08/13 09:35:35;;;;;;;1999.90;999.90;;;23.70;99.90;;;;;;5056611;28;20149;-81
2021/08/13 09:38:07;;;;;;;1999.90;999.90;;;23.70;99.90;;;;;;5056486;28;20429;-81
2021/08/13 09:40:38;;;;;;;1999.90;999.90;;;23.70;99.90;;;;;;5056077;28;20390;-80
2021/08/13 09:43:12;;;;;;;1999.90;999.90;;;23.80;99.90;;;;;;5135912;22;20517;-85
2021/08/13 09:46:05;;;;;;;1999.90;999.90;;;23.80;99.90;;;;;;5059423;28;20411;-85
2021/08/13 09:52:44;;;;;;;1999.90;999.90;;;24.00;99.90;;;;;;4968658;28;20423;-84
2021/08/13 09:55:54;;;;;;;1999.90;999.90;;;24.10;99.90;;;;;;4939545;29;20413;-85
2021/08/13 09:58:29;;;;;;;1999.90;999.90;;;24.10;99.90;;;;;;4959206;28;20503;-85
2021/08/13 10:04:57;;;;;;;1999.90;999.90;;;24.40;99.90;;;;;;4958797;29;20455;-85
2021/08/13 10:08:00;;;;;;;1999.90;999.90;;;24.40;99.90;;;;;;4942835;29;20444;-86
2021/08/13 10:14:26;;;;;;;1999.90;999.90;;;24.80;99.90;;;;;;4961160;29;20771;-86
2021/08/13 10:17:20;;;;;;;1999.90;999.90;;;25.00;99.90;;;;;;4972513;28;20480;-86
2021/08/13 10:22:44;;;;;;;1999.90;999.90;;;25.00;99.90;;;;;;4993964;28;20404;-85
2021/08/13 10:25:13;;;;;;;1999.90;999.90;;;25.20;99.90;;;;;;5030503;28;20420;-84
2021/08/13 10:27:47;;;;;;;1999.90;999.90;;;25.40;99.90;;;;;;5036744;28;20178;-83
2021/08/13 10:30:15;;;;;;;1999.90;999.90;;;25.60;99.90;;;;;;5017290;28;20950;-83
2021/08/13 10:32:58;;;;;;;;;;;;;;;;;;;;;
2021/08/13 10:35:48;;;;;;;1999.90;999.90;;;25.80;99.90;;;;;;5040428;28;20464;-84
2021/08/13 10:38:34;;;;;;;1999.90;999.90;;;25.80;99.90;;;;;;5039690;28;20508;-84
2021/08/13 10:41:36;;;;;;;1999.90;999.90;;;25.70;99.90;;;;;;5025781;28;20824;-86
2021/08/13 10:44:20;;;;;;;1999.90;999.90;;;25.80;99.90;;;;;;5024051;28;20466;-85
2021/08/13 10:46:47;;;;;;;1999.90;999.90;;;26.00;99.90;;;;;;5043254;28;20426;-85
2021/08/13 10:49:17;;;;;;;1999.90;999.90;;;26.10;99.90;;;;;;5043734;28;20432;-85
2021/08/13 10:52:24;;;;;;;1999.90;999.90;;;26.10;99.90;;;;;;5043965;28;20414;-85
2021/08/13 10:55:13;;;;;;;1999.90;999.90;;;26.30;99.90;;;;;;5041999;28;20449;-86
2021/08/13 10:58:17;;;;;;;;;;;;;;;;;;;;;
2021/08/13 11:08:19;;;;;;;;;;;;;;;;;;;;;
2021/08/13 11:11:02;;;;;;;1999.90;999.90;;;26.60;97.70;;;;;;4939956;29;20424;-87
2021/08/13 11:31:33;;;;;;;1999.90;999.90;;;26.50;94.00;;;;;;4890290;29;20401;-87
2021/08/13 11:41:29;;;;;;;1999.90;999.90;;;26.80;82.70;;;;;;5058832;28;20446;-87
2021/08/13 11:44:28;;;;;;;1999.90;999.90;;;26.80;79.40;;;;;;5040550;28;20450;-87
2021/08/13 11:47:08;;;;;;;1999.90;999.90;;;27.10;77.90;;;;;;5060219;28;20481;-87
2021/08/13 11:49:40;;;;;;;1999.90;999.90;;;26.80;76.20;;;;;;5046827;28;20410;-86
2021/08/13 11:52:36;;;;;;;1999.90;999.90;;;26.80;79.10;;;;;;5047437;28;20403;-87
2021/08/13 11:55:39;;;;;;;1999.90;999.90;;;26.80;80.70;;;;;;5014518;28;20505;-88
2021/08/13 11:58:36;;;;;;;1999.90;999.90;;;26.90;80.20;;;;;;5059509;28;20415;-86
2021/08/13 12:02:02;;;;;;;;;;;;;;;;;;;;;
2021/08/13 12:18:34;;;;;;;1999.90;999.90;;;26.80;79.60;;;;;;5102795;22;20490;-88
2021/08/13 12:21:31;;;;;;;1999.90;999.90;;;27.20;80.20;;;;;;5039929;28;20422;-87
2021/08/13 12:24:31;;;;;;;1999.90;999.90;;;27.50;74.00;;;;;;5057584;28;20443;-88
2021/08/13 12:27:08;;;;;;;1999.90;999.90;;;27.80;65.20;;;;;;5038025;28;20435;-87
2021/08/13 12:30:03;;;;;;;1999.90;999.90;;;27.70;60.40;;;;;;5039900;28;20766;-87
2021/08/13 12:32:45;;;;;;;1999.90;999.90;;;27.60;52.00;;;;;;5039152;28;20410;-87
2021/08/13 12:35:15;;;;;;;1999.90;999.90;;;27.50;47.80;;;;;;5039670;28;20434;-87
2021/08/13 12:38:04;;;;;;;1999.90;999.90;;;27.30;50.90;;;;;;5057873;28;20410;-87
2021/08/13 12:40:53;;;;;;;1999.90;999.90;;;27.30;51.00;;;;;;5039290;28;20921;-87
2021/08/13 12:43:23;;;;;;;1999.90;999.90;;;27.20;63.90;;;;;;5058035;28;20435;-87
2021/08/13 12:45:54;;;;;;;1999.90;999.90;;;27.10;63.90;;;;;;5058001;28;20449;-87
2021/08/13 12:48:21;;;;;;;1999.90;999.90;;;27.10;68.60;;;;;;5041144;28;20489;-87
2021/08/13 12:50:58;;;;;;;1999.90;999.90;;;27.00;61.60;;;;;;5041371;28;20925;-88
2021/08/13 12:53:40;;;;;;;1999.90;999.90;;;27.00;61.90;;;;;;5041242;28;20391;-86
2021/08/13 12:56:17;;;;;;;1999.90;999.90;;;27.00;56.60;;;;;;5039641;28;20411;-87
2021/08/13 12:58:43;;;;;;;1999.90;999.90;;;27.00;58.30;;;;;;5041983;28;20410;-87
2021/08/13 13:01:27;;;;;;;1999.90;999.90;;;27.00;63.00;;;;;;5059586;28;20899;-88
2021/08/13 13:04:13;;;;;;;1999.90;999.90;;;27.10;62.60;;;;;;5059416;28;20188;-88
2021/08/13 13:06:54;;;;;;;1999.90;999.90;;;27.20;66.30;;;;;;5040340;28;20415;-86
2021/08/13 13:09:31;;;;;;;1999.90;999.90;;;27.20;44.20;;;;;;5058462;28;20390;-86
2021/08/13 13:12:20;;;;;;;1999.90;999.90;;;27.40;51.50;;;;;;5038196;28;20445;-87
2021/08/13 13:14:46;;;;;;;1999.90;999.90;;;27.50;55.70;;;;;;5038476;28;20862;-86
2021/08/13 13:17:23;;;;;;;1999.90;999.90;;;27.50;52.40;;;;;;5037917;28;20434;-86
2021/08/13 13:20:18;;;;;;;1999.90;999.90;;;27.40;37.50;;;;;;5055492;28;20398;-87